Lunamar — 5BNV2 — position and weather

sailwx.info

Track history (hours):
 
Tides and Currents Weather Stations Pressure Air Temp Water Temp Dewpoint Dewpoint Depression Visibility Wind Speed Wind Dir Waves Ship Positions

Lunamar

Last reported at 2015-Jul-06 06:33 UTC. Time now 2015-Jul-06 07:06 UTC.
Position N 53°57' E 008°39'.

Length 90 m; draft 5.3 m.

Type: Cargo ship. MMSI: 212762000.

Date/timePositionNaut miles runAvg speedWind from/ knotsBaromVisibWave heightAir tempDewpointWater temp
2015-Jul-06 06:33N 53°57' E 008°39'1010.2
2015-Jul-06 05:33N 53°51' E 008°53'9 8.7
2015-Jul-06 04:34N 53°53' E 009°07'2 2.1
2015-Jul-06 03:33N 53°54' E 009°10'8 8.0
2015-Jul-06 02:33N 54°01' E 009°18'10 7.9
2015-Jul-06 01:17N 54°10' E 009°25'6 8.1
2015-Jul-06 00:33N 54°12' E 009°34'8 7.6
2015-Jul-05 23:32N 54°18' E 009°43'7 7.0
2015-Jul-05 22:33N 54°21' E 009°53'8 8.1
2015-Jul-05 21:33N 54°22' E 010°07'2 1.8
2015-Jul-05 20:33N 54°22' E 010°10'8 8.2
2015-Jul-05 19:33N 54°29' E 010°17'9 8.6
2015-Jul-05 18:33N 54°33' E 010°30'10 8.4
2015-Jul-05 17:22N 54°35' E 010°47'7 8.5
2015-Jul-05 16:33N 54°36' E 010°59'9 8.9
2015-Jul-05 15:33N 54°35' E 011°14'9 9.1
2015-Jul-05 14:33N 54°32' E 011°28'9 8.8
2015-Jul-05 13:34N 54°28' E 011°42'9 8.6
2015-Jul-05 12:33N 54°27' E 011°57'8 7.8
2015-Jul-05 11:33N 54°29' E 012°10'9 8.4
2015-Jul-05 10:31N 54°37' E 012°16'17 8.7
2015-Jul-05 08:33N 54°46' E 012°41'12 8.6
2015-Jul-05 07:10N 54°51' E 013°00'5 8.7
2015-Jul-05 06:33N 54°53' E 013°09'9 8.7
2015-Jul-05 05:33N 54°56' E 013°23'9 8.7
2015-Jul-05 04:32N 54°59' E 013°38'9 8.7
2015-Jul-05 03:33N 55°02' E 013°52'8 8.5
2015-Jul-05 02:33N 55°05' E 014°05'9 8.6
2015-Jul-05 01:33N 55°12' E 014°14'34 8.6
2015-Jul-04 21:33N 55°34' E 014°60'9 8.8
2015-Jul-04 20:34N 55°39' E 015°13'9 9.1
2015-Jul-04 19:34N 55°43' E 015°27'9 9.1
2015-Jul-04 18:34N 55°48' E 015°41'9 8.7
2015-Jul-04 17:32N 55°52' E 015°55'  
Track history (hours):
 
Tides and Currents Weather Stations Pressure Air Temp Water Temp Dewpoint Dewpoint Depression Visibility Wind Speed Wind Dir Waves Ship Positions

Lunamar

Last reported at 2015-Jul-06 06:33 UTC. Time now 2015-Jul-06 07:06 UTC.
Position N 53°57' E 008°39'.

Length 90 m; draft 5.3 m.

Type: Cargo ship. MMSI: 212762000.

Date/timePositionNaut miles runAvg speedWind from/ knotsBaromVisibWave heightAir tempDewpointWater temp
2015-Jul-06 06:33N 53°57' E 008°39'1010.2
2015-Jul-06 05:33N 53°51' E 008°53'9 8.7
2015-Jul-06 04:34N 53°53' E 009°07'2 2.1
2015-Jul-06 03:33N 53°54' E 009°10'8 8.0
2015-Jul-06 02:33N 54°01' E 009°18'10 7.9
2015-Jul-06 01:17N 54°10' E 009°25'6 8.1
2015-Jul-06 00:33N 54°12' E 009°34'8 7.6
2015-Jul-05 23:32N 54°18' E 009°43'7 7.0
2015-Jul-05 22:33N 54°21' E 009°53'8 8.1
2015-Jul-05 21:33N 54°22' E 010°07'2 1.8
2015-Jul-05 20:33N 54°22' E 010°10'8 8.2
2015-Jul-05 19:33N 54°29' E 010°17'9 8.6
2015-Jul-05 18:33N 54°33' E 010°30'10 8.4
2015-Jul-05 17:22N 54°35' E 010°47'7 8.5
2015-Jul-05 16:33N 54°36' E 010°59'9 8.9
2015-Jul-05 15:33N 54°35' E 011°14'9 9.1
2015-Jul-05 14:33N 54°32' E 011°28'9 8.8
2015-Jul-05 13:34N 54°28' E 011°42'9 8.6
2015-Jul-05 12:33N 54°27' E 011°57'8 7.8
2015-Jul-05 11:33N 54°29' E 012°10'9 8.4
2015-Jul-05 10:31N 54°37' E 012°16'17 8.7
2015-Jul-05 08:33N 54°46' E 012°41'12 8.6
2015-Jul-05 07:10N 54°51' E 013°00'5 8.7
2015-Jul-05 06:33N 54°53' E 013°09'9 8.7
2015-Jul-05 05:33N 54°56' E 013°23'9 8.7
2015-Jul-05 04:32N 54°59' E 013°38'9 8.7
2015-Jul-05 03:33N 55°02' E 013°52'8 8.5
2015-Jul-05 02:33N 55°05' E 014°05'9 8.6
2015-Jul-05 01:33N 55°12' E 014°14'34 8.6
2015-Jul-04 21:33N 55°34' E 014°60'9 8.8
2015-Jul-04 20:34N 55°39' E 015°13'9 9.1
2015-Jul-04 19:34N 55°43' E 015°27'9 9.1
2015-Jul-04 18:34N 55°48' E 015°41'9 8.7
2015-Jul-04 17:32N 55°52' E 015°55'  

Dump ship's entire track history